sensor_id;sensor_type;location;lat;lon;timestamp;pressure;altitude;pressure_sealevel;temperature;humidity
39954;BME280;25631;51.516;-0.470;2023-04-25T00:01:06;101300.03;;;6.05;35.33
39954;BME280;25631;51.516;-0.470;2023-04-25T00:03:43;101298.70;;;5.95;35.38
39954;BME280;25631;51.516;-0.470;2023-04-25T00:06:19;101301.93;;;5.74;35.30
39954;BME280;25631;51.516;-0.470;2023-04-25T00:08:57;101306.97;;;5.73;35.36
39954;BME280;25631;51.516;-0.470;2023-04-25T00:11:33;101306.73;;;5.66;35.35
39954;BME280;25631;51.516;-0.470;2023-04-25T00:14:10;101307.22;;;5.61;35.42
39954;BME280;25631;51.516;-0.470;2023-04-25T00:16:47;101311.43;;;5.47;35.51
39954;BME280;25631;51.516;-0.470;2023-04-25T00:19:25;101316.62;;;5.57;35.48
39954;BME280;25631;51.516;-0.470;2023-04-25T00:22:06;101315.52;;;5.45;35.64
39954;BME280;25631;51.516;-0.470;2023-04-25T00:24:48;101317.09;;;5.41;35.58
39954;BME280;25631;51.516;-0.470;2023-04-25T00:27:24;101317.75;;;5.53;35.66
39954;BME280;25631;51.516;-0.470;2023-04-25T00:30:01;101320.34;;;5.49;35.58
39954;BME280;25631;51.516;-0.470;2023-04-25T00:32:37;101322.39;;;5.54;35.61
39954;BME280;25631;51.516;-0.470;2023-04-25T00:35:19;101318.78;;;5.42;35.46
39954;BME280;25631;51.516;-0.470;2023-04-25T00:37:55;101318.91;;;5.29;35.58
39954;BME280;25631;51.516;-0.470;2023-04-25T00:40:32;101320.02;;;5.28;35.68
39954;BME280;25631;51.516;-0.470;2023-04-25T00:43:08;101326.57;;;5.29;35.67
39954;BME280;25631;51.516;-0.470;2023-04-25T00:45:51;101331.31;;;5.15;35.74
39954;BME280;25631;51.516;-0.470;2023-04-25T00:48:31;101333.43;;;5.49;35.64
39954;BME280;25631;51.516;-0.470;2023-04-25T00:51:07;101337.58;;;5.31;35.54
39954;BME280;25631;51.516;-0.470;2023-04-25T00:53:46;101333.85;;;5.45;35.57
39954;BME280;25631;51.516;-0.470;2023-04-25T00:56:24;101328.27;;;5.21;35.47
39954;BME280;25631;51.516;-0.470;2023-04-25T00:59:06;101323.59;;;5.14;35.45
39954;BME280;25631;51.516;-0.470;2023-04-25T01:01:43;101325.85;;;5.16;35.48
39954;BME280;25631;51.516;-0.470;2023-04-25T01:04:21;101334.65;;;4.98;35.57
39954;BME280;25631;51.516;-0.470;2023-04-25T01:06:58;101332.20;;;5.01;35.45
39954;BME280;25631;51.516;-0.470;2023-04-25T01:09:35;101328.61;;;5.44;35.45
39954;BME280;25631;51.516;-0.470;2023-04-25T01:12:12;101330.85;;;5.36;35.46
39954;BME280;25631;51.516;-0.470;2023-04-25T01:14:49;101335.40;;;4.82;35.45
39954;BME280;25631;51.516;-0.470;2023-04-25T01:17:26;101337.40;;;4.71;35.51
39954;BME280;25631;51.516;-0.470;2023-04-25T01:20:04;101337.55;;;4.96;35.49
39954;BME280;25631;51.516;-0.470;2023-04-25T01:22:41;101338.62;;;4.64;35.49
39954;BME280;25631;51.516;-0.470;2023-04-25T01:25:17;101338.66;;;4.94;35.54
39954;BME280;25631;51.516;-0.470;2023-04-25T01:27:54;101339.47;;;4.59;35.52
39954;BME280;25631;51.516;-0.470;2023-04-25T01:30:31;101344.80;;;4.67;35.53
39954;BME280;25631;51.516;-0.470;2023-04-25T01:33:08;101350.15;;;4.73;35.54
39954;BME280;25631;51.516;-0.470;2023-04-25T01:35:45;101348.95;;;4.39;35.49
39954;BME280;25631;51.516;-0.470;2023-04-25T01:38:21;101350.72;;;4.51;35.38
39954;BME280;25631;51.516;-0.470;2023-04-25T01:40:58;101351.96;;;4.49;35.36
39954;BME280;25631;51.516;-0.470;2023-04-25T01:43:35;101356.54;;;4.50;35.38
39954;BME280;25631;51.516;-0.470;2023-04-25T01:46:11;101354.66;;;4.24;35.40
39954;BME280;25631;51.516;-0.470;2023-04-25T01:48:48;101356.19;;;4.61;35.40
39954;BME280;25631;51.516;-0.470;2023-04-25T01:51:24;101358.13;;;4.58;35.31
39954;BME280;25631;51.516;-0.470;2023-04-25T01:54:01;101355.41;;;4.49;35.32
39954;BME280;25631;51.516;-0.470;2023-04-25T01:56:39;101354.18;;;4.42;35.39
39954;BME280;25631;51.516;-0.470;2023-04-25T01:59:15;101361.04;;;4.35;35.45
39954;BME280;25631;51.516;-0.470;2023-04-25T02:01:52;101359.71;;;4.42;35.48
39954;BME280;25631;51.516;-0.470;2023-04-25T02:04:29;101364.00;;;4.33;35.42
39954;BME280;25631;51.516;-0.470;2023-04-25T02:07:05;101359.84;;;4.16;35.39
39954;BME280;25631;51.516;-0.470;2023-04-25T02:09:42;101360.26;;;4.09;35.38
39954;BME280;25631;51.516;-0.470;2023-04-25T02:12:18;101362.05;;;3.88;35.40
39954;BME280;25631;51.516;-0.470;2023-04-25T02:14:54;101367.31;;;4.12;35.45
39954;BME280;25631;51.516;-0.470;2023-04-25T02:17:31;101365.45;;;3.95;35.51
39954;BME280;25631;51.516;-0.470;2023-04-25T02:20:08;101365.75;;;3.89;35.56
39954;BME280;25631;51.516;-0.470;2023-04-25T02:22:44;101369.10;;;3.97;35.58
39954;BME280;25631;51.516;-0.470;2023-04-25T02:25:22;101370.44;;;3.88;35.52
39954;BME280;25631;51.516;-0.470;2023-04-25T02:27:59;101370.21;;;4.09;35.45
39954;BME280;25631;51.516;-0.470;2023-04-25T02:30:35;101371.68;;;4.02;35.38
39954;BME280;25631;51.516;-0.470;2023-04-25T02:33:12;101370.01;;;4.08;35.46
39954;BME280;25631;51.516;-0.470;2023-04-25T02:35:49;101372.36;;;3.73;35.44
39954;BME280;25631;51.516;-0.470;2023-04-25T02:38:25;101376.59;;;3.76;35.47
39954;BME280;25631;51.516;-0.470;2023-04-25T02:41:02;101376.95;;;3.65;35.55
39954;BME280;25631;51.516;-0.470;2023-04-25T02:43:38;101375.39;;;3.64;35.61
39954;BME280;25631;51.516;-0.470;2023-04-25T02:46:15;101375.38;;;3.59;35.71
39954;BME280;25631;51.516;-0.470;2023-04-25T02:48:51;101375.30;;;3.58;35.70
39954;BME280;25631;51.516;-0.470;2023-04-25T02:51:28;101378.97;;;3.73;35.73
39954;BME280;25631;51.516;-0.470;2023-04-25T02:54:04;101377.81;;;3.54;35.81
39954;BME280;25631;51.516;-0.470;2023-04-25T02:56:41;101379.07;;;3.77;35.79
39954;BME280;25631;51.516;-0.470;2023-04-25T02:59:17;101380.41;;;3.87;35.83
39954;BME280;25631;51.516;-0.470;2023-04-25T03:01:54;101380.86;;;3.66;35.86
39954;BME280;25631;51.516;-0.470;2023-04-25T03:04:30;101378.59;;;3.77;35.82
39954;BME280;25631;51.516;-0.470;2023-04-25T03:07:07;101379.55;;;3.59;35.83
39954;BME280;25631;51.516;-0.470;2023-04-25T03:09:44;101383.17;;;3.55;35.83
39954;BME280;25631;51.516;-0.470;2023-04-25T03:12:20;101385.63;;;3.64;35.83
39954;BME280;25631;51.516;-0.470;2023-04-25T03:14:56;101390.18;;;3.67;35.76
39954;BME280;25631;51.516;-0.470;2023-04-25T03:17:33;101385.28;;;3.56;35.75
39954;BME280;25631;51.516;-0.470;2023-04-25T03:20:10;101390.47;;;3.80;35.79
39954;BME280;25631;51.516;-0.470;2023-04-25T03:22:47;101388.70;;;3.58;35.70
39954;BME280;25631;51.516;-0.470;2023-04-25T03:25:23;101388.05;;;3.65;35.72
39954;BME280;25631;51.516;-0.470;2023-04-25T03:28:00;101388.14;;;3.66;35.71
39954;BME280;25631;51.516;-0.470;2023-04-25T03:30:36;101390.69;;;3.53;35.72
39954;BME280;25631;51.516;-0.470;2023-04-25T03:33:12;101397.59;;;3.52;35.67
39954;BME280;25631;51.516;-0.470;2023-04-25T03:35:49;101398.34;;;3.72;35.64
39954;BME280;25631;51.516;-0.470;2023-04-25T03:38:25;101397.16;;;3.53;35.64
39954;BME280;25631;51.516;-0.470;2023-04-25T03:41:02;101398.93;;;3.21;35.71
39954;BME280;25631;51.516;-0.470;2023-04-25T03:43:39;101399.48;;;3.79;35.67
39954;BME280;25631;51.516;-0.470;2023-04-25T03:46:15;101404.65;;;3.59;35.70
39954;BME280;25631;51.516;-0.470;2023-04-25T03:48:51;101407.07;;;3.66;35.73
39954;BME280;25631;51.516;-0.470;2023-04-25T03:51:28;101408.50;;;3.43;35.75
39954;BME280;25631;51.516;-0.470;2023-04-25T03:54:04;101415.94;;;3.38;35.81
39954;BME280;25631;51.516;-0.470;2023-04-25T03:56:40;101423.31;;;3.57;35.83
39954;BME280;25631;51.516;-0.470;2023-04-25T03:59:17;101426.90;;;3.55;35.73
39954;BME280;25631;51.516;-0.470;2023-04-25T04:01:54;101424.20;;;3.48;35.67
39954;BME280;25631;51.516;-0.470;2023-04-25T04:04:30;101422.14;;;3.34;35.64
39954;BME280;25631;51.516;-0.470;2023-04-25T04:07:07;101425.89;;;3.60;35.65
39954;BME280;25631;51.516;-0.470;2023-04-25T04:09:43;101427.67;;;3.54;35.71
39954;BME280;25631;51.516;-0.470;2023-04-25T04:12:20;101433.64;;;3.25;35.71
39954;BME280;25631;51.516;-0.470;2023-04-25T04:14:56;101436.74;;;3.30;35.67
39954;BME280;25631;51.516;-0.470;2023-04-25T04:17:33;101436.53;;;3.31;35.82
39954;BME280;25631;51.516;-0.470;2023-04-25T04:20:10;101439.79;;;3.39;35.72
39954;BME280;25631;51.516;-0.470;2023-04-25T04:22:47;101445.31;;;3.40;35.80
39954;BME280;25631;51.516;-0.470;2023-04-25T04:25:23;101449.32;;;3.26;35.83
39954;BME280;25631;51.516;-0.470;2023-04-25T04:28:00;101452.94;;;3.07;35.80
39954;BME280;25631;51.516;-0.470;2023-04-25T04:30:37;101453.65;;;3.15;35.78
39954;BME280;25631;51.516;-0.470;2023-04-25T04:33:13;101460.65;;;2.87;35.79
39954;BME280;25631;51.516;-0.470;2023-04-25T04:35:50;101464.62;;;2.96;35.79
39954;BME280;25631;51.516;-0.470;2023-04-25T04:38:28;101461.32;;;2.95;35.79
39954;BME280;25631;51.516;-0.470;2023-04-25T04:41:04;101461.71;;;2.99;35.87
39954;BME280;25631;51.516;-0.470;2023-04-25T04:43:41;101461.77;;;3.09;35.92
39954;BME280;25631;51.516;-0.470;2023-04-25T04:46:17;101460.50;;;2.99;35.93
39954;BME280;25631;51.516;-0.470;2023-04-25T04:48:53;101461.47;;;3.16;35.91
39954;BME280;25631;51.516;-0.470;2023-04-25T04:51:30;101464.84;;;3.15;35.87
39954;BME280;25631;51.516;-0.470;2023-04-25T04:54:07;101471.05;;;2.98;35.94
39954;BME280;25631;51.516;-0.470;2023-04-25T04:56:43;101472.73;;;2.99;35.92
39954;BME280;25631;51.516;-0.470;2023-04-25T04:59:19;101471.09;;;3.06;36.05
39954;BME280;25631;51.516;-0.470;2023-04-25T05:01:56;101478.97;;;3.07;36.12
39954;BME280;25631;51.516;-0.470;2023-04-25T05:04:32;101484.67;;;2.92;36.08
39954;BME280;25631;51.516;-0.470;2023-04-25T05:07:09;101491.60;;;3.27;36.00
39954;BME280;25631;51.516;-0.470;2023-04-25T05:09:45;101500.79;;;3.04;36.12
39954;BME280;25631;51.516;-0.470;2023-04-25T05:12:22;101504.10;;;3.04;36.26
39954;BME280;25631;51.516;-0.470;2023-04-25T05:14:58;101506.87;;;3.05;36.36
39954;BME280;25631;51.516;-0.470;2023-04-25T05:17:34;101514.02;;;2.85;36.44
39954;BME280;25631;51.516;-0.470;2023-04-25T05:20:11;101530.02;;;2.93;36.25
39954;BME280;25631;51.516;-0.470;2023-04-25T05:22:47;101532.81;;;3.06;36.21
39954;BME280;25631;51.516;-0.470;2023-04-25T05:25:23;101536.24;;;2.94;36.29
39954;BME280;25631;51.516;-0.470;2023-04-25T05:28:00;101544.35;;;3.19;36.11
39954;BME280;25631;51.516;-0.470;2023-04-25T05:30:36;101548.66;;;2.89;36.22
39954;BME280;25631;51.516;-0.470;2023-04-25T05:33:13;101542.66;;;3.09;36.37
39954;BME280;25631;51.516;-0.470;2023-04-25T05:35:50;101543.30;;;2.95;36.41
39954;BME280;25631;51.516;-0.470;2023-04-25T05:38:26;101540.83;;;3.11;36.34
39954;BME280;25631;51.516;-0.470;2023-04-25T05:41:03;101542.90;;;3.04;36.23
39954;BME280;25631;51.516;-0.470;2023-04-25T05:43:39;101545.61;;;3.32;36.14
39954;BME280;25631;51.516;-0.470;2023-04-25T05:46:16;101553.27;;;3.08;36.12
39954;BME280;25631;51.516;-0.470;2023-04-25T05:48:52;101559.48;;;2.86;36.14
39954;BME280;25631;51.516;-0.470;2023-04-25T05:51:29;101563.56;;;2.01;36.03
39954;BME280;25631;51.516;-0.470;2023-04-25T05:54:05;101560.54;;;3.11;35.89
39954;BME280;25631;51.516;-0.470;2023-04-25T05:56:41;101554.82;;;3.37;36.01
39954;BME280;25631;51.516;-0.470;2023-04-25T05:59:18;101556.75;;;2.82;36.04
39954;BME280;25631;51.516;-0.470;2023-04-25T06:01:54;101558.66;;;3.49;36.01
39954;BME280;25631;51.516;-0.470;2023-04-25T06:04:30;101568.92;;;2.98;36.13
39954;BME280;25631;51.516;-0.470;2023-04-25T06:07:07;101570.52;;;3.26;36.05
39954;BME280;25631;51.516;-0.470;2023-04-25T06:09:44;101569.94;;;3.58;35.98
39954;BME280;25631;51.516;-0.470;2023-04-25T06:12:20;101570.30;;;3.65;35.99
39954;BME280;25631;51.516;-0.470;2023-04-25T06:14:56;101572.58;;;3.62;35.98
39954;BME280;25631;51.516;-0.470;2023-04-25T06:17:33;101569.63;;;3.26;35.87
39954;BME280;25631;51.516;-0.470;2023-04-25T06:20:11;101576.11;;;3.32;35.83
39954;BME280;25631;51.516;-0.470;2023-04-25T06:22:47;101580.77;;;3.52;35.92
39954;BME280;25631;51.516;-0.470;2023-04-25T06:25:23;101583.90;;;3.49;35.91
39954;BME280;25631;51.516;-0.470;2023-04-25T06:28:00;101579.83;;;3.41;35.87
39954;BME280;25631;51.516;-0.470;2023-04-25T06:30:36;101588.78;;;3.38;35.97
39954;BME280;25631;51.516;-0.470;2023-04-25T06:33:13;101594.14;;;3.52;35.91
39954;BME280;25631;51.516;-0.470;2023-04-25T06:35:49;101593.56;;;3.37;35.80
39954;BME280;25631;51.516;-0.470;2023-04-25T06:38:26;101592.64;;;3.72;35.81
39954;BME280;25631;51.516;-0.470;2023-04-25T06:41:02;101593.25;;;3.83;35.75
39954;BME280;25631;51.516;-0.470;2023-04-25T06:43:39;101594.13;;;3.61;35.57
39954;BME280;25631;51.516;-0.470;2023-04-25T06:46:15;101586.56;;;3.65;35.57
39954;BME280;25631;51.516;-0.470;2023-04-25T06:48:51;101579.84;;;3.79;35.59
39954;BME280;25631;51.516;-0.470;2023-04-25T06:51:28;101582.51;;;3.58;35.61
39954;BME280;25631;51.516;-0.470;2023-04-25T06:54:04;101583.96;;;3.60;35.52
39954;BME280;25631;51.516;-0.470;2023-04-25T06:56:41;101591.95;;;3.59;35.20
39954;BME280;25631;51.516;-0.470;2023-04-25T06:59:18;101597.10;;;3.69;35.25
39954;BME280;25631;51.516;-0.470;2023-04-25T07:01:54;101601.17;;;3.74;35.26
39954;BME280;25631;51.516;-0.470;2023-04-25T07:04:30;101602.86;;;3.74;35.36
39954;BME280;25631;51.516;-0.470;2023-04-25T07:07:07;101607.08;;;3.86;35.08
39954;BME280;25631;51.516;-0.470;2023-04-25T07:09:43;101610.41;;;3.76;35.10
39954;BME280;25631;51.516;-0.470;2023-04-25T07:12:20;101612.18;;;4.09;35.20
39954;BME280;25631;51.516;-0.470;2023-04-25T07:14:56;101617.06;;;3.88;35.14
39954;BME280;25631;51.516;-0.470;2023-04-25T07:17:32;101623.83;;;3.91;35.09
39954;BME280;25631;51.516;-0.470;2023-04-25T07:20:09;101627.28;;;4.05;34.97
39954;BME280;25631;51.516;-0.470;2023-04-25T07:22:46;101628.70;;;4.16;34.89
39954;BME280;25631;51.516;-0.470;2023-04-25T07:25:22;101628.91;;;4.16;34.96
39954;BME280;25631;51.516;-0.470;2023-04-25T07:27:59;101633.87;;;4.43;34.88
39954;BME280;25631;51.516;-0.470;2023-04-25T07:30:36;101634.29;;;4.35;34.67
39954;BME280;25631;51.516;-0.470;2023-04-25T07:33:12;101635.51;;;4.50;34.59
39954;BME280;25631;51.516;-0.470;2023-04-25T07:35:49;101635.66;;;4.56;34.31
39954;BME280;25631;51.516;-0.470;2023-04-25T07:38:25;101641.41;;;4.44;34.46
39954;BME280;25631;51.516;-0.470;2023-04-25T07:41:02;101642.17;;;4.44;34.42
39954;BME280;25631;51.516;-0.470;2023-04-25T07:43:38;101645.68;;;5.04;34.46
39954;BME280;25631;51.516;-0.470;2023-04-25T07:46:15;101648.45;;;4.81;34.03
39954;BME280;25631;51.516;-0.470;2023-04-25T07:48:51;101649.57;;;4.75;33.90
39954;BME280;25631;51.516;-0.470;2023-04-25T07:51:28;101645.36;;;4.85;33.90
39954;BME280;25631;51.516;-0.470;2023-04-25T07:54:04;101644.87;;;5.19;33.97
39954;BME280;25631;51.516;-0.470;2023-04-25T07:56:40;101648.86;;;4.76;33.52
39954;BME280;25631;51.516;-0.470;2023-04-25T07:59:17;101647.72;;;4.60;33.79
39954;BME280;25631;51.516;-0.470;2023-04-25T08:01:53;101655.77;;;5.25;33.72
39954;BME280;25631;51.516;-0.470;2023-04-25T08:04:31;101656.52;;;4.81;33.46
39954;BME280;25631;51.516;-0.470;2023-04-25T08:07:07;101658.45;;;5.46;33.65
39954;BME280;25631;51.516;-0.470;2023-04-25T08:09:43;101657.91;;;4.79;33.28
39954;BME280;25631;51.516;-0.470;2023-04-25T08:12:20;101663.83;;;5.00;33.54
39954;BME280;25631;51.516;-0.470;2023-04-25T08:14:56;101668.02;;;5.24;33.17
39954;BME280;25631;51.516;-0.470;2023-04-25T08:17:33;101666.56;;;5.15;33.35
39954;BME280;25631;51.516;-0.470;2023-04-25T08:20:10;101669.55;;;5.10;33.46
39954;BME280;25631;51.516;-0.470;2023-04-25T08:22:47;101674.37;;;5.25;33.24
39954;BME280;25631;51.516;-0.470;2023-04-25T08:25:23;101677.05;;;5.01;33.26
39954;BME280;25631;51.516;-0.470;2023-04-25T08:28:00;101673.61;;;5.27;33.27
39954;BME280;25631;51.516;-0.470;2023-04-25T08:30:37;101673.55;;;5.14;33.08
39954;BME280;25631;51.516;-0.470;2023-04-25T08:33:13;101670.85;;;5.24;33.03
39954;BME280;25631;51.516;-0.470;2023-04-25T08:35:50;101669.86;;;5.37;33.05
39954;BME280;25631;51.516;-0.470;2023-04-25T08:38:27;101671.69;;;5.55;32.75
39954;BME280;25631;51.516;-0.470;2023-04-25T08:41:04;101675.62;;;5.52;32.33
39954;BME280;25631;51.516;-0.470;2023-04-25T08:43:42;101670.90;;;5.52;32.45
39954;BME280;25631;51.516;-0.470;2023-04-25T08:46:19;101670.64;;;5.52;32.35
39954;BME280;25631;51.516;-0.470;2023-04-25T08:49:00;101672.08;;;5.60;32.04
39954;BME280;25631;51.516;-0.470;2023-04-25T08:51:44;101670.87;;;5.93;32.34
39954;BME280;25631;51.516;-0.470;2023-04-25T08:54:21;101673.49;;;6.00;32.36
39954;BME280;25631;51.516;-0.470;2023-04-25T08:57:01;101669.34;;;6.07;32.00
39954;BME280;25631;51.516;-0.470;2023-04-25T08:59:39;101664.67;;;6.22;31.81
39954;BME280;25631;51.516;-0.470;2023-04-25T09:02:17;101663.12;;;6.35;31.58
39954;BME280;25631;51.516;-0.470;2023-04-25T09:04:54;101662.77;;;6.10;31.11
39954;BME280;25631;51.516;-0.470;2023-04-25T09:07:30;101659.46;;;6.30;31.05
39954;BME280;25631;51.516;-0.470;2023-04-25T09:10:07;101666.01;;;6.44;31.45
39954;BME280;25631;51.516;-0.470;2023-04-25T09:12:44;101666.61;;;6.16;31.51
39954;BME280;25631;51.516;-0.470;2023-04-25T09:15:20;101662.97;;;6.27;31.13
39954;BME280;25631;51.516;-0.470;2023-04-25T09:17:58;101657.67;;;6.44;30.87
39954;BME280;25631;51.516;-0.470;2023-04-25T09:20:41;101659.66;;;6.33;31.10
39954;BME280;25631;51.516;-0.470;2023-04-25T09:23:19;101663.96;;;6.67;30.74
39954;BME280;25631;51.516;-0.470;2023-04-25T09:25:56;101661.25;;;6.79;30.21
39954;BME280;25631;51.516;-0.470;2023-04-25T09:28:33;101659.15;;;6.38;30.44
39954;BME280;25631;51.516;-0.470;2023-04-25T09:31:10;101655.69;;;6.61;30.62
39954;BME280;25631;51.516;-0.470;2023-04-25T09:33:46;101656.12;;;6.97;30.45
39954;BME280;25631;51.516;-0.470;2023-04-25T09:36:26;101660.79;;;6.78;29.93
39954;BME280;25631;51.516;-0.470;2023-04-25T09:39:12;101662.29;;;6.65;28.91
39954;BME280;25631;51.516;-0.470;2023-04-25T09:41:54;101661.73;;;7.00;28.96
39954;BME280;25631;51.516;-0.470;2023-04-25T09:44:31;101663.03;;;6.98;28.28
39954;BME280;25631;51.516;-0.470;2023-04-25T09:47:09;101669.57;;;7.11;28.22
39954;BME280;25631;51.516;-0.470;2023-04-25T09:49:46;101670.17;;;6.85;28.39
39954;BME280;25631;51.516;-0.470;2023-04-25T09:52:24;101666.78;;;7.03;27.95
39954;BME280;25631;51.516;-0.470;2023-04-25T09:55:01;101665.44;;;7.19;28.11
39954;BME280;25631;51.516;-0.470;2023-04-25T09:57:43;101666.03;;;7.32;28.23
39954;BME280;25631;51.516;-0.470;2023-04-25T10:00:23;101668.44;;;7.18;27.21
39954;BME280;25631;51.516;-0.470;2023-04-25T10:03:01;101670.06;;;7.39;27.59
39954;BME280;25631;51.516;-0.470;2023-04-25T10:05:38;101669.43;;;7.26;27.06
39954;BME280;25631;51.516;-0.470;2023-04-25T10:08:15;101670.09;;;7.22;27.50
39954;BME280;25631;51.516;-0.470;2023-04-25T10:10:52;101670.82;;;7.69;27.43
39954;BME280;25631;51.516;-0.470;2023-04-25T10:13:29;101667.78;;;7.66;27.40
39954;BME280;25631;51.516;-0.470;2023-04-25T10:16:06;101673.44;;;7.90;26.49
39954;BME280;25631;51.516;-0.470;2023-04-25T10:18:43;101675.60;;;8.07;25.03
39954;BME280;25631;51.516;-0.470;2023-04-25T10:21:21;101680.86;;;7.85;24.38
39954;BME280;25631;51.516;-0.470;2023-04-25T10:23:58;101675.45;;;8.07;25.33
39954;BME280;25631;51.516;-0.470;2023-04-25T10:26:35;101670.09;;;8.06;26.26
39954;BME280;25631;51.516;-0.470;2023-04-25T10:29:12;101665.73;;;8.23;26.48
39954;BME280;25631;51.516;-0.470;2023-04-25T10:31:48;101665.08;;;8.30;26.06
39954;BME280;25631;51.516;-0.470;2023-04-25T10:34:38;101660.68;;;8.12;25.39
39954;BME280;25631;51.516;-0.470;2023-04-25T10:37:15;101667.61;;;8.47;25.20
39954;BME280;25631;51.516;-0.470;2023-04-25T10:39:51;101665.20;;;8.13;25.35
39954;BME280;25631;51.516;-0.470;2023-04-25T10:42:29;101660.72;;;8.50;25.61
39954;BME280;25631;51.516;-0.470;2023-04-25T10:45:06;101666.95;;;8.51;25.77
39954;BME280;25631;51.516;-0.470;2023-04-25T10:47:44;101674.31;;;8.35;25.44
39954;BME280;25631;51.516;-0.470;2023-04-25T10:50:20;101674.54;;;8.77;25.26
39954;BME280;25631;51.516;-0.470;2023-04-25T10:53:14;101672.90;;;8.51;24.45
39954;BME280;25631;51.516;-0.470;2023-04-25T10:55:51;101667.10;;;8.33;23.87
39954;BME280;25631;51.516;-0.470;2023-04-25T10:58:29;101666.97;;;8.47;24.23
39954;BME280;25631;51.516;-0.470;2023-04-25T11:01:06;101670.20;;;8.57;24.26
39954;BME280;25631;51.516;-0.470;2023-04-25T11:03:43;101661.70;;;8.81;24.33
39954;BME280;25631;51.516;-0.470;2023-04-25T11:06:26;101660.84;;;8.97;23.88
39954;BME280;25631;51.516;-0.470;2023-04-25T11:09:11;101656.92;;;9.30;23.97
39954;BME280;25631;51.516;-0.470;2023-04-25T11:11:54;101660.54;;;9.53;23.99
39954;BME280;25631;51.516;-0.470;2023-04-25T11:14:30;101657.33;;;9.29;24.04
39954;BME280;25631;51.516;-0.470;2023-04-25T11:17:09;101655.22;;;9.58;24.07
39954;BME280;25631;51.516;-0.470;2023-04-25T11:19:48;101651.36;;;9.85;23.62
39954;BME280;25631;51.516;-0.470;2023-04-25T11:22:26;101654.35;;;9.71;22.53
39954;BME280;25631;51.516;-0.470;2023-04-25T11:25:05;101650.56;;;9.69;22.33
39954;BME280;25631;51.516;-0.470;2023-04-25T11:27:50;101645.41;;;9.52;22.71
39954;BME280;25631;51.516;-0.470;2023-04-25T11:30:27;101647.15;;;9.68;23.11
39954;BME280;25631;51.516;-0.470;2023-04-25T11:33:04;101651.67;;;9.64;23.39
39954;BME280;25631;51.516;-0.470;2023-04-25T11:35:40;101647.95;;;9.89;22.39
39954;BME280;25631;51.516;-0.470;2023-04-25T11:38:17;101644.97;;;9.51;23.04
39954;BME280;25631;51.516;-0.470;2023-04-25T11:40:53;101656.63;;;10.06;23.23
39954;BME280;25631;51.516;-0.470;2023-04-25T11:43:30;101654.79;;;10.21;22.99
39954;BME280;25631;51.516;-0.470;2023-04-25T11:46:07;101655.76;;;10.06;22.54
39954;BME280;25631;51.516;-0.470;2023-04-25T11:48:43;101652.05;;;9.97;22.91
39954;BME280;25631;51.516;-0.470;2023-04-25T11:51:20;101648.59;;;10.36;22.96
39954;BME280;25631;51.516;-0.470;2023-04-25T11:53:56;101653.33;;;10.43;23.27
39954;BME280;25631;51.516;-0.470;2023-04-25T11:56:33;101657.98;;;10.60;23.48
39954;BME280;25631;51.516;-0.470;2023-04-25T11:59:09;101655.43;;;10.54;22.68
39954;BME280;25631;51.516;-0.470;2023-04-25T12:01:49;101657.36;;;10.65;22.82
39954;BME280;25631;51.516;-0.470;2023-04-25T12:04:25;101657.36;;;10.70;22.55
39954;BME280;25631;51.516;-0.470;2023-04-25T12:07:02;101660.79;;;10.69;22.17
39954;BME280;25631;51.516;-0.470;2023-04-25T12:09:39;101661.25;;;10.61;22.13
39954;BME280;25631;51.516;-0.470;2023-04-25T12:12:15;101660.03;;;10.71;21.83
39954;BME280;25631;51.516;-0.470;2023-04-25T12:14:51;101656.23;;;10.53;22.25
39954;BME280;25631;51.516;-0.470;2023-04-25T12:17:28;101658.75;;;10.37;21.91
39954;BME280;25631;51.516;-0.470;2023-04-25T12:20:08;101662.75;;;10.42;22.03
39954;BME280;25631;51.516;-0.470;2023-04-25T12:22:46;101663.46;;;10.42;22.05
39954;BME280;25631;51.516;-0.470;2023-04-25T12:25:39;101663.19;;;10.26;21.94
39954;BME280;25631;51.516;-0.470;2023-04-25T12:28:18;101670.68;;;10.08;22.15
39954;BME280;25631;51.516;-0.470;2023-04-25T12:30:57;101673.91;;;10.32;22.26
39954;BME280;25631;51.516;-0.470;2023-04-25T12:33:35;101676.24;;;10.43;22.67
39954;BME280;25631;51.516;-0.470;2023-04-25T12:36:11;101672.98;;;10.55;22.64
39954;BME280;25631;51.516;-0.470;2023-04-25T12:38:48;101672.01;;;10.52;22.10
39954;BME280;25631;51.516;-0.470;2023-04-25T12:41:24;101669.60;;;10.45;22.13
39954;BME280;25631;51.516;-0.470;2023-04-25T12:44:01;101669.72;;;10.83;22.09
39954;BME280;25631;51.516;-0.470;2023-04-25T12:46:38;101676.82;;;10.67;22.18
39954;BME280;25631;51.516;-0.470;2023-04-25T12:49:14;101679.46;;;10.68;21.47
39954;BME280;25631;51.516;-0.470;2023-04-25T12:51:51;101682.41;;;10.72;21.64
39954;BME280;25631;51.516;-0.470;2023-04-25T12:54:27;101682.16;;;10.85;21.85
39954;BME280;25631;51.516;-0.470;2023-04-25T12:57:03;101683.08;;;10.90;22.11
39954;BME280;25631;51.516;-0.470;2023-04-25T12:59:40;101680.26;;;10.75;21.36
39954;BME280;25631;51.516;-0.470;2023-04-25T13:02:17;101677.97;;;10.69;20.95
39954;BME280;25631;51.516;-0.470;2023-04-25T13:04:54;101675.49;;;10.53;21.03
39954;BME280;25631;51.516;-0.470;2023-04-25T13:07:30;101674.01;;;10.26;21.26
39954;BME280;25631;51.516;-0.470;2023-04-25T13:10:08;101678.88;;;10.61;21.82
39954;BME280;25631;51.516;-0.470;2023-04-25T13:12:44;101683.29;;;10.70;21.86
39954;BME280;25631;51.516;-0.470;2023-04-25T13:15:21;101684.31;;;10.83;22.04
39954;BME280;25631;51.516;-0.470;2023-04-25T13:17:57;101681.74;;;10.70;21.57
39954;BME280;25631;51.516;-0.470;2023-04-25T13:20:34;101683.31;;;10.76;21.10
39954;BME280;25631;51.516;-0.470;2023-04-25T13:23:10;101682.64;;;11.00;20.87
39954;BME280;25631;51.516;-0.470;2023-04-25T13:25:47;101684.91;;;10.83;21.43
39954;BME280;25631;51.516;-0.470;2023-04-25T13:28:23;101686.86;;;11.44;21.34
39954;BME280;25631;51.516;-0.470;2023-04-25T13:31:00;101683.12;;;11.41;21.28
39954;BME280;25631;51.516;-0.470;2023-04-25T13:33:36;101689.30;;;11.56;21.20
39954;BME280;25631;51.516;-0.470;2023-04-25T13:36:12;101690.87;;;11.76;21.04
39954;BME280;25631;51.516;-0.470;2023-04-25T13:38:49;101693.88;;;11.70;21.11